LFKJ

Ajaccio-Napoléon Bonaparte Airport

Airport
ICAO code
LFKJ
IATA Code
AJA
Summary
ICAO Region
EUR
ICAO Territory
Location

Ajaccio, Corse

Serving
Ajaccio
Elevation
18 ft
Coordinates
41° 55' 25" N , 8° 48' 11" E
KCC
Metar
Observation
LFKJ 092000Z AUTO 05003KT 9999 FEW015 BKN026 BKN034 15/14 Q1002 BECMG FEW013 BKN020 FEW035CB
Station
Ajaccio
Date/Time
2022-12-09 20:00:00
Wind direction
50°
Wind speed
03 kts
Lowest cloud amount
few clouds
Temperature
15°C
Dew point
14°C
Humidity
93%
QNH
1002 hPa
Weather condition
n/a

Runways

Designator Length Width Surface Rops
2/20 2407 45 ASP Yes/Yes

Airport map

Aerial View

SKYbrary Partners:

Safety knowledge contributed by: